AAL3213 TNCM-KMIA
Flight info
| Callsign | AAL3213 |
|---|---|
| Flight time | 2h 40m |
| Altitude | 32000 |
| Route | MODOR2 JUICE B520 STT RTE6 SJU DCT ACONY Y308 ANTOX/N0467F340 Y308 MADIZ VIICE2 |
| Aircraft | B738/M-SDE2E3FGHIRWXY/LB1 |
Departure
| Time | 2026-05-07 16:18 |
|---|---|
| Airport | Princess Juliana International Airport (TNCM) |
Arrival
| Time | 2026-05-07 18:59 |
|---|---|
| Airport | Miami International Airport (KMIA) |
| Time | Latitude | Longitude | Altitude | Speed | Heading |
|---|---|---|---|---|---|
| 2026-05-07 16:05 | 18.04335 | -63.11366 | 8 ft | 0 kts | 351° |
| 2026-05-07 16:12 | 18.04332 | -63.11366 | 8 ft | 1 kts | 351° |
| 2026-05-07 16:12 | 18.04314 | -63.11363 | 8 ft | 3 kts | 348° |
| 2026-05-07 16:12 | 18.04295 | -63.11358 | 8 ft | 3 kts | 343° |
| 2026-05-07 16:13 | 18.04276 | -63.11351 | 8 ft | 3 kts | 334° |
| 2026-05-07 16:13 | 18.04259 | -63.11340 | 8 ft | 3 kts | 311° |
| 2026-05-07 16:13 | 18.04251 | -63.11326 | 8 ft | 2 kts | 266° |
| 2026-05-07 16:13 | 18.04252 | -63.11319 | 8 ft | 1 kts | 261° |
| 2026-05-07 16:14 | 18.04252 | -63.11318 | 8 ft | 0 kts | 261° |
| 2026-05-07 16:15 | 18.04249 | -63.11338 | 8 ft | 10 kts | 261° |
| 2026-05-07 16:15 | 18.04229 | -63.11460 | 8 ft | 19 kts | 256° |
| 2026-05-07 16:15 | 18.04156 | -63.11574 | 8 ft | 19 kts | 230° |
| 2026-05-07 16:15 | 18.04076 | -63.11676 | 8 ft | 18 kts | 238° |
| 2026-05-07 16:16 | 18.04047 | -63.11794 | 8 ft | 14 kts | 261° |
| 2026-05-07 16:16 | 18.04033 | -63.11891 | 8 ft | 13 kts | 261° |
| 2026-05-07 16:16 | 18.04005 | -63.11952 | 8 ft | 10 kts | 234° |
| 2026-05-07 16:16 | 18.03958 | -63.11990 | 8 ft | 6 kts | 185° |
| 2026-05-07 16:17 | 18.03937 | -63.11964 | 8 ft | 6 kts | 88° |
| 2026-05-07 16:17 | 18.03938 | -63.11956 | 8 ft | 0 kts | 82° |
| 2026-05-07 16:17 | 18.03974 | -63.11696 | 8 ft | 69 kts | 81° |
| 2026-05-07 16:18 | 18.04078 | -63.10982 | 8 ft | 128 kts | 82° |
| 2026-05-07 16:18 | 18.04227 | -63.09884 | 106 ft | 168 kts | 83° |
| 2026-05-07 16:18 | 18.04323 | -63.08665 | 846 ft | 168 kts | 96° |
| 2026-05-07 16:18 | 18.03811 | -63.07546 | 1466 ft | 178 kts | 130° |
| 2026-05-07 16:19 | 18.02725 | -63.06830 | 1961 ft | 197 kts | 158° |
| 2026-05-07 16:19 | 18.01285 | -63.06617 | 2293 ft | 223 kts | 177° |
| 2026-05-07 16:19 | 17.99656 | -63.06800 | 2651 ft | 245 kts | 184° |
| 2026-05-07 16:19 | 17.97919 | -63.07105 | 3183 ft | 263 kts | 195° |
| 2026-05-07 16:20 | 17.96323 | -63.08112 | 3913 ft | 274 kts | 221° |
| 2026-05-07 16:20 | 17.95243 | -63.09766 | 4743 ft | 279 kts | 247° |
| 2026-05-07 16:20 | 17.94886 | -63.11765 | 5590 ft | 281 kts | 270° |
| 2026-05-07 16:20 | 17.95095 | -63.13807 | 6424 ft | 283 kts | 282° |
| 2026-05-07 16:21 | 17.95651 | -63.15803 | 7189 ft | 287 kts | 290° |
| 2026-05-07 16:21 | 17.96328 | -63.17786 | 7964 ft | 290 kts | 290° |
| 2026-05-07 16:21 | 17.97020 | -63.19789 | 8699 ft | 294 kts | 290° |
| 2026-05-07 16:21 | 17.97719 | -63.21818 | 9427 ft | 297 kts | 290° |
| 2026-05-07 16:22 | 17.98422 | -63.23861 | 10192 ft | 298 kts | 290° |
| 2026-05-07 16:22 | 17.99130 | -63.25921 | 10884 ft | 303 kts | 290° |
| 2026-05-07 16:22 | 17.99854 | -63.28032 | 11363 ft | 315 kts | 290° |
| 2026-05-07 16:22 | 18.00618 | -63.30260 | 11652 ft | 333 kts | 291° |
| 2026-05-07 16:23 | 18.01423 | -63.32608 | 11900 ft | 350 kts | 290° |
| 2026-05-07 16:23 | 18.02270 | -63.35070 | 12126 ft | 367 kts | 291° |
| 2026-05-07 16:23 | 18.03164 | -63.37633 | 12402 ft | 380 kts | 291° |
| 2026-05-07 16:23 | 18.04072 | -63.40263 | 12901 ft | 385 kts | 291° |
| 2026-05-07 16:24 | 18.04984 | -63.42919 | 13498 ft | 387 kts | 291° |
| 2026-05-07 16:24 | 18.05899 | -63.45591 | 14094 ft | 389 kts | 291° |
| 2026-05-07 16:24 | 18.06817 | -63.48276 | 14666 ft | 392 kts | 291° |
| 2026-05-07 16:24 | 18.07739 | -63.50978 | 15230 ft | 394 kts | 291° |
| 2026-05-07 16:25 | 18.08666 | -63.53695 | 15781 ft | 396 kts | 291° |
| 2026-05-07 16:25 | 18.09599 | -63.56431 | 16315 ft | 398 kts | 291° |
| 2026-05-07 16:25 | 18.10537 | -63.59181 | 16848 ft | 400 kts | 291° |
| 2026-05-07 16:25 | 18.11479 | -63.61943 | 17362 ft | 403 kts | 291° |
| 2026-05-07 16:26 | 18.12425 | -63.64722 | 17858 ft | 405 kts | 290° |
| 2026-05-07 16:26 | 18.13219 | -63.67564 | 18346 ft | 408 kts | 285° |
| 2026-05-07 16:26 | 18.13800 | -63.70500 | 18792 ft | 412 kts | 282° |
| 2026-05-07 16:26 | 18.14127 | -63.72472 | 19098 ft | 413 kts | 281° |
| 2026-05-07 16:27 | 18.14760 | -63.76436 | 19667 ft | 417 kts | 281° |
| 2026-05-07 16:27 | 18.15263 | -63.79452 | 20074 ft | 420 kts | 282° |
| 2026-05-07 16:27 | 18.15773 | -63.82482 | 20489 ft | 422 kts | 282° |
| 2026-05-07 16:27 | 18.16282 | -63.85524 | 20893 ft | 424 kts | 282° |
| 2026-05-07 16:28 | 18.16794 | -63.88592 | 21259 ft | 427 kts | 282° |
| 2026-05-07 16:28 | 18.17307 | -63.91675 | 21618 ft | 429 kts | 281° |
| 2026-05-07 16:28 | 18.17821 | -63.94766 | 21984 ft | 431 kts | 282° |
| 2026-05-07 16:28 | 18.18340 | -63.97886 | 22334 ft | 433 kts | 282° |
| 2026-05-07 16:29 | 18.18858 | -64.01010 | 22659 ft | 436 kts | 282° |
| 2026-05-07 16:29 | 18.19380 | -64.04152 | 22967 ft | 438 kts | 282° |
| 2026-05-07 16:29 | 18.19905 | -64.07312 | 23274 ft | 440 kts | 282° |
| 2026-05-07 16:29 | 18.20434 | -64.10498 | 23597 ft | 441 kts | 282° |
| 2026-05-07 16:30 | 18.20965 | -64.13676 | 23878 ft | 444 kts | 282° |
| 2026-05-07 16:30 | 18.21502 | -64.16886 | 24155 ft | 446 kts | 282° |
| 2026-05-07 16:30 | 18.22038 | -64.20100 | 24413 ft | 448 kts | 282° |
| 2026-05-07 16:30 | 18.22577 | -64.23333 | 24676 ft | 450 kts | 282° |
| 2026-05-07 16:31 | 18.23117 | -64.26584 | 24945 ft | 452 kts | 282° |
| 2026-05-07 16:31 | 18.23660 | -64.29847 | 25187 ft | 454 kts | 282° |
| 2026-05-07 16:31 | 18.24214 | -64.33118 | 25430 ft | 456 kts | 282° |
| 2026-05-07 16:31 | 18.24772 | -64.36399 | 25662 ft | 458 kts | 282° |
| 2026-05-07 16:32 | 18.25327 | -64.39709 | 25912 ft | 459 kts | 282° |
| 2026-05-07 16:32 | 18.25877 | -64.43025 | 26121 ft | 462 kts | 282° |
| 2026-05-07 16:32 | 18.26429 | -64.46360 | 26349 ft | 463 kts | 282° |
| 2026-05-07 16:32 | 18.26981 | -64.49706 | 26560 ft | 465 kts | 282° |
| 2026-05-07 16:33 | 18.27528 | -64.53023 | 26784 ft | 467 kts | 282° |
| 2026-05-07 16:33 | 18.28083 | -64.56394 | 26986 ft | 469 kts | 282° |
| 2026-05-07 16:33 | 18.28641 | -64.59780 | 27200 ft | 470 kts | 282° |
| 2026-05-07 16:33 | 18.29201 | -64.63179 | 27392 ft | 472 kts | 282° |
| 2026-05-07 16:34 | 18.29761 | -64.66591 | 27598 ft | 474 kts | 282° |
| 2026-05-07 16:34 | 18.30323 | -64.70008 | 27833 ft | 474 kts | 283° |
| 2026-05-07 16:34 | 18.30890 | -64.73423 | 28135 ft | 473 kts | 283° |
| 2026-05-07 16:34 | 18.31449 | -64.76836 | 28446 ft | 473 kts | 283° |
| 2026-05-07 16:35 | 18.32003 | -64.80243 | 28723 ft | 472 kts | 283° |
| 2026-05-07 16:35 | 18.32555 | -64.83649 | 29022 ft | 472 kts | 283° |
| 2026-05-07 16:35 | 18.33105 | -64.87049 | 29340 ft | 471 kts | 283° |
| 2026-05-07 16:35 | 18.33654 | -64.90444 | 29631 ft | 471 kts | 283° |
| 2026-05-07 16:36 | 18.34202 | -64.93840 | 29923 ft | 470 kts | 283° |
| 2026-05-07 16:36 | 18.34740 | -64.97224 | 30258 ft | 470 kts | 282° |
| 2026-05-07 16:36 | 18.34977 | -65.00668 | 30551 ft | 474 kts | 274° |
| 2026-05-07 16:36 | 18.34735 | -65.04141 | 30843 ft | 478 kts | 265° |
| 2026-05-07 16:37 | 18.34062 | -65.07574 | 31148 ft | 481 kts | 259° |
| 2026-05-07 16:37 | 18.33114 | -65.10952 | 31447 ft | 482 kts | 256° |
| 2026-05-07 16:37 | 18.32046 | -65.14293 | 31741 ft | 481 kts | 255° |
| 2026-05-07 16:37 | 18.31015 | -65.17641 | 32033 ft | 481 kts | 256° |
| 2026-05-07 16:38 | 18.30223 | -65.21033 | 32328 ft | 475 kts | 264° |
| 2026-05-07 16:38 | 18.29952 | -65.24476 | 32608 ft | 470 kts | 274° |
| 2026-05-07 16:38 | 18.30184 | -65.27883 | 32887 ft | 465 kts | 281° |
| 2026-05-07 16:38 | 18.30723 | -65.31228 | 33161 ft | 463 kts | 285° |
| 2026-05-07 16:39 | 18.31416 | -65.34531 | 33436 ft | 461 kts | 286° |
| 2026-05-07 16:39 | 18.32126 | -65.37821 | 33673 ft | 462 kts | 286° |
| 2026-05-07 16:39 | 18.32819 | -65.41123 | 33948 ft | 462 kts | 285° |
| 2026-05-07 16:39 | 18.33500 | -65.44422 | 34218 ft | 461 kts | 285° |
| 2026-05-07 16:40 | 18.34168 | -65.47675 | 34474 ft | 461 kts | 285° |
| 2026-05-07 16:40 | 18.34843 | -65.50972 | 34707 ft | 461 kts | 286° |
| 2026-05-07 16:40 | 18.35517 | -65.54270 | 34951 ft | 461 kts | 286° |
| 2026-05-07 16:40 | 18.36189 | -65.57560 | 35228 ft | 460 kts | 286° |
| 2026-05-07 16:41 | 18.36861 | -65.60847 | 35470 ft | 459 kts | 287° |
| 2026-05-07 16:41 | 18.37532 | -65.64137 | 35725 ft | 459 kts | 287° |
| 2026-05-07 16:41 | 18.38206 | -65.67412 | 35947 ft | 459 kts | 287° |
| 2026-05-07 16:41 | 18.38882 | -65.70697 | 36099 ft | 460 kts | 287° |
| 2026-05-07 16:42 | 18.39553 | -65.73996 | 36116 ft | 461 kts | 287° |
| 2026-05-07 16:42 | 18.40885 | -65.80573 | 36114 ft | 458 kts | 287° |
| 2026-05-07 16:43 | 18.42205 | -65.87118 | 36112 ft | 457 kts | 287° |
| 2026-05-07 16:43 | 18.43531 | -65.93677 | 36110 ft | 457 kts | 288° |
| 2026-05-07 16:43 | 18.44508 | -65.96828 | 36108 ft | 450 kts | 299° |
| 2026-05-07 16:44 | 18.46019 | -65.99677 | 36110 ft | 443 kts | 309° |
| 2026-05-07 16:44 | 18.50046 | -66.04509 | 36110 ft | 437 kts | 319° |
| 2026-05-07 16:45 | 18.54419 | -66.08935 | 36110 ft | 436 kts | 320° |
| 2026-05-07 16:45 | 18.58801 | -66.13352 | 36110 ft | 437 kts | 320° |
| 2026-05-07 16:46 | 18.62462 | -66.17052 | 36109 ft | 440 kts | 320° |
| 2026-05-07 16:46 | 18.66880 | -66.21525 | 36108 ft | 440 kts | 320° |
| 2026-05-07 16:47 | 18.71296 | -66.25976 | 36107 ft | 439 kts | 321° |
| 2026-05-07 16:47 | 18.75704 | -66.30428 | 36107 ft | 439 kts | 320° |
| 2026-05-07 16:48 | 18.80098 | -66.34887 | 36106 ft | 438 kts | 320° |
| 2026-05-07 16:48 | 18.84487 | -66.39347 | 36109 ft | 437 kts | 320° |
| 2026-05-07 16:49 | 18.88868 | -66.43801 | 36113 ft | 437 kts | 320° |
| 2026-05-07 16:49 | 18.93065 | -66.48448 | 36113 ft | 442 kts | 313° |
| 2026-05-07 16:50 | 18.96669 | -66.53751 | 36113 ft | 445 kts | 309° |
| 2026-05-07 16:50 | 19.00148 | -66.59153 | 36114 ft | 444 kts | 309° |
| 2026-05-07 16:51 | 19.03628 | -66.64547 | 36114 ft | 444 kts | 309° |
| 2026-05-07 16:51 | 19.07108 | -66.69937 | 36114 ft | 444 kts | 309° |
| 2026-05-07 16:52 | 19.10564 | -66.75291 | 36115 ft | 444 kts | 309° |
| 2026-05-07 16:52 | 19.14071 | -66.80701 | 36115 ft | 443 kts | 310° |
| 2026-05-07 16:53 | 19.17534 | -66.86040 | 36115 ft | 443 kts | 310° |
| 2026-05-07 16:53 | 19.21008 | -66.91414 | 36115 ft | 442 kts | 310° |
| 2026-05-07 16:54 | 19.24479 | -66.96792 | 36114 ft | 443 kts | 310° |
| 2026-05-07 16:54 | 19.27948 | -67.02173 | 36108 ft | 443 kts | 310° |
| 2026-05-07 16:55 | 19.31415 | -67.07558 | 36108 ft | 442 kts | 310° |
| 2026-05-07 16:55 | 19.34877 | -67.12938 | 36108 ft | 442 kts | 310° |
| 2026-05-07 16:56 | 19.38335 | -67.18320 | 36108 ft | 442 kts | 310° |
| 2026-05-07 16:56 | 19.43514 | -67.26386 | 36108 ft | 441 kts | 310° |
| 2026-05-07 16:57 | 19.46965 | -67.31767 | 36107 ft | 441 kts | 310° |
| 2026-05-07 16:57 | 19.50411 | -67.37147 | 36108 ft | 441 kts | 310° |
| 2026-05-07 16:58 | 19.53854 | -67.42525 | 36107 ft | 441 kts | 310° |
| 2026-05-07 16:58 | 19.57294 | -67.47902 | 36107 ft | 440 kts | 310° |
| 2026-05-07 16:59 | 19.60728 | -67.53276 | 36106 ft | 440 kts | 310° |
| 2026-05-07 16:59 | 19.64163 | -67.58657 | 36106 ft | 440 kts | 310° |
| 2026-05-07 17:00 | 19.67593 | -67.64034 | 36106 ft | 440 kts | 310° |
| 2026-05-07 17:00 | 19.71019 | -67.69409 | 36105 ft | 440 kts | 310° |
| 2026-05-07 17:01 | 19.74445 | -67.74790 | 36105 ft | 439 kts | 310° |
| 2026-05-07 17:01 | 19.77840 | -67.80126 | 36105 ft | 439 kts | 310° |
| 2026-05-07 17:02 | 19.81258 | -67.85505 | 36107 ft | 439 kts | 310° |
| 2026-05-07 17:02 | 19.84699 | -67.90923 | 36107 ft | 439 kts | 310° |
| 2026-05-07 17:03 | 19.88091 | -67.96268 | 36106 ft | 439 kts | 310° |
| 2026-05-07 17:03 | 19.91503 | -68.01652 | 36106 ft | 439 kts | 310° |
| 2026-05-07 17:04 | 19.94917 | -68.07043 | 36106 ft | 439 kts | 310° |
| 2026-05-07 17:04 | 19.98328 | -68.12433 | 36105 ft | 439 kts | 310° |
| 2026-05-07 17:05 | 20.01737 | -68.17827 | 36105 ft | 439 kts | 310° |
| 2026-05-07 17:05 | 20.05143 | -68.23220 | 36099 ft | 440 kts | 310° |
| 2026-05-07 17:06 | 20.08557 | -68.28614 | 36080 ft | 439 kts | 310° |
| 2026-05-07 17:06 | 20.11966 | -68.34011 | 36071 ft | 440 kts | 310° |
| 2026-05-07 17:07 | 20.15366 | -68.39416 | 36073 ft | 440 kts | 310° |
| 2026-05-07 17:07 | 20.18767 | -68.44830 | 36075 ft | 440 kts | 310° |
| 2026-05-07 17:08 | 20.22163 | -68.50241 | 36074 ft | 440 kts | 310° |
| 2026-05-07 17:08 | 20.25564 | -68.55666 | 36073 ft | 441 kts | 309° |
| 2026-05-07 17:09 | 20.28721 | -68.61300 | 36073 ft | 444 kts | 306° |
| 2026-05-07 17:09 | 20.31771 | -68.67019 | 36071 ft | 444 kts | 306° |
| 2026-05-07 17:10 | 20.34844 | -68.72722 | 36071 ft | 444 kts | 306° |
| 2026-05-07 17:10 | 20.37928 | -68.78421 | 36070 ft | 444 kts | 306° |
| 2026-05-07 17:11 | 20.40996 | -68.84087 | 36070 ft | 444 kts | 306° |
| 2026-05-07 17:11 | 20.44096 | -68.89784 | 36069 ft | 444 kts | 306° |
| 2026-05-07 17:12 | 20.47202 | -68.95486 | 36069 ft | 445 kts | 306° |
| 2026-05-07 17:12 | 20.50303 | -69.01201 | 36068 ft | 445 kts | 306° |
| 2026-05-07 17:13 | 20.53399 | -69.06916 | 36068 ft | 445 kts | 306° |
| 2026-05-07 17:13 | 20.56493 | -69.12638 | 36067 ft | 445 kts | 306° |
| 2026-05-07 17:14 | 20.59584 | -69.18360 | 36067 ft | 446 kts | 306° |
| 2026-05-07 17:14 | 20.62679 | -69.24096 | 36062 ft | 446 kts | 306° |
| 2026-05-07 17:15 | 20.65770 | -69.29830 | 36060 ft | 446 kts | 306° |
| 2026-05-07 17:15 | 20.68861 | -69.35571 | 36060 ft | 446 kts | 306° |
| 2026-05-07 17:16 | 20.71951 | -69.41315 | 36059 ft | 446 kts | 306° |
| 2026-05-07 17:16 | 20.75042 | -69.47057 | 36055 ft | 446 kts | 306° |
| 2026-05-07 17:17 | 20.78138 | -69.52802 | 36053 ft | 446 kts | 306° |
| 2026-05-07 17:17 | 20.81221 | -69.58556 | 36054 ft | 447 kts | 306° |
| 2026-05-07 17:18 | 20.84301 | -69.64318 | 36053 ft | 447 kts | 306° |
| 2026-05-07 17:18 | 20.87383 | -69.70087 | 36053 ft | 447 kts | 306° |
| 2026-05-07 17:19 | 20.90442 | -69.75813 | 36053 ft | 447 kts | 306° |
| 2026-05-07 17:19 | 20.93522 | -69.81576 | 36054 ft | 446 kts | 306° |
| 2026-05-07 17:20 | 20.96596 | -69.87335 | 36053 ft | 446 kts | 306° |
| 2026-05-07 17:20 | 20.99665 | -69.93096 | 36053 ft | 446 kts | 306° |
| 2026-05-07 17:21 | 21.02735 | -69.98866 | 36053 ft | 446 kts | 306° |
| 2026-05-07 17:21 | 21.05802 | -70.04637 | 36053 ft | 447 kts | 305° |
| 2026-05-07 17:22 | 21.08880 | -70.10407 | 36053 ft | 446 kts | 305° |
| 2026-05-07 17:22 | 21.11965 | -70.16177 | 36053 ft | 446 kts | 305° |
| 2026-05-07 17:23 | 21.15040 | -70.21955 | 36053 ft | 446 kts | 305° |
| 2026-05-07 17:23 | 21.18110 | -70.27736 | 36053 ft | 446 kts | 305° |
| 2026-05-07 17:24 | 21.21177 | -70.33522 | 36053 ft | 446 kts | 305° |
| 2026-05-07 17:24 | 21.24241 | -70.39308 | 36053 ft | 446 kts | 305° |
| 2026-05-07 17:25 | 21.27306 | -70.45103 | 36053 ft | 446 kts | 305° |
| 2026-05-07 17:25 | 21.30366 | -70.50893 | 36053 ft | 446 kts | 305° |
| 2026-05-07 17:26 | 21.33424 | -70.56687 | 36053 ft | 446 kts | 304° |
| 2026-05-07 17:26 | 21.36479 | -70.62481 | 36053 ft | 446 kts | 304° |
| 2026-05-07 17:27 | 21.39533 | -70.68281 | 36053 ft | 446 kts | 304° |
| 2026-05-07 17:27 | 21.42589 | -70.74075 | 36053 ft | 446 kts | 305° |
| 2026-05-07 17:28 | 21.45646 | -70.79872 | 36055 ft | 446 kts | 304° |
| 2026-05-07 17:28 | 21.48691 | -70.85679 | 36054 ft | 446 kts | 304° |
| 2026-05-07 17:29 | 21.51731 | -70.91489 | 36054 ft | 446 kts | 304° |
| 2026-05-07 17:29 | 21.54751 | -70.97265 | 36054 ft | 447 kts | 304° |
| 2026-05-07 17:30 | 21.57812 | -71.03121 | 36054 ft | 446 kts | 304° |
| 2026-05-07 17:30 | 21.60705 | -71.08978 | 36054 ft | 447 kts | 302° |
| 2026-05-07 17:31 | 21.63569 | -71.14920 | 36054 ft | 448 kts | 302° |
| 2026-05-07 17:31 | 21.66438 | -71.20858 | 36054 ft | 447 kts | 302° |
| 2026-05-07 17:32 | 21.69307 | -71.26791 | 36055 ft | 447 kts | 302° |
| 2026-05-07 17:32 | 21.71690 | -71.31720 | 36056 ft | 447 kts | 302° |
| 2026-05-07 17:33 | 21.75057 | -71.38654 | 36058 ft | 447 kts | 302° |
| 2026-05-07 17:33 | 21.77939 | -71.44574 | 36060 ft | 447 kts | 302° |
| 2026-05-07 17:34 | 21.80816 | -71.50510 | 36062 ft | 447 kts | 302° |
| 2026-05-07 17:34 | 21.83201 | -71.55442 | 36064 ft | 447 kts | 302° |
| 2026-05-07 17:35 | 21.86071 | -71.61387 | 36067 ft | 447 kts | 302° |
| 2026-05-07 17:35 | 21.88934 | -71.67327 | 36070 ft | 447 kts | 301° |
| 2026-05-07 17:36 | 21.91792 | -71.73263 | 36072 ft | 447 kts | 301° |
| 2026-05-07 17:36 | 21.94649 | -71.79204 | 36074 ft | 446 kts | 301° |
| 2026-05-07 17:37 | 21.97504 | -71.85149 | 36076 ft | 447 kts | 301° |
| 2026-05-07 17:37 | 22.00355 | -71.91092 | 36077 ft | 447 kts | 301° |
| 2026-05-07 17:38 | 22.03207 | -71.97042 | 36078 ft | 447 kts | 301° |
| 2026-05-07 17:38 | 22.06055 | -72.02993 | 36079 ft | 447 kts | 301° |
| 2026-05-07 17:39 | 22.08901 | -72.08947 | 36080 ft | 447 kts | 301° |
| 2026-05-07 17:39 | 22.11745 | -72.14902 | 36080 ft | 447 kts | 301° |
| 2026-05-07 17:40 | 22.14587 | -72.20860 | 36080 ft | 447 kts | 301° |
| 2026-05-07 17:40 | 22.17428 | -72.26823 | 36080 ft | 446 kts | 301° |
| 2026-05-07 17:41 | 22.20261 | -72.32777 | 36083 ft | 446 kts | 301° |
| 2026-05-07 17:41 | 22.23092 | -72.38733 | 36083 ft | 446 kts | 301° |
| 2026-05-07 17:42 | 22.25899 | -72.44647 | 36083 ft | 446 kts | 301° |
| 2026-05-07 17:42 | 22.28724 | -72.50604 | 36083 ft | 446 kts | 301° |
| 2026-05-07 17:43 | 22.31545 | -72.56562 | 36083 ft | 445 kts | 301° |
| 2026-05-07 17:43 | 22.34364 | -72.62503 | 36083 ft | 445 kts | 301° |
| 2026-05-07 17:44 | 22.37184 | -72.68447 | 36084 ft | 444 kts | 301° |
| 2026-05-07 17:44 | 22.39985 | -72.74392 | 36084 ft | 444 kts | 301° |
| 2026-05-07 17:45 | 22.42784 | -72.80345 | 36084 ft | 444 kts | 300° |
| 2026-05-07 17:45 | 22.45581 | -72.86297 | 36084 ft | 444 kts | 300° |
| 2026-05-07 17:46 | 22.48376 | -72.92246 | 36084 ft | 444 kts | 300° |
| 2026-05-07 17:46 | 22.51167 | -72.98191 | 36085 ft | 443 kts | 300° |
| 2026-05-07 17:47 | 22.53953 | -73.04136 | 36085 ft | 443 kts | 300° |
| 2026-05-07 17:47 | 22.56734 | -73.10085 | 36085 ft | 443 kts | 300° |
| 2026-05-07 17:48 | 22.59511 | -73.16035 | 36086 ft | 443 kts | 300° |
| 2026-05-07 17:48 | 22.62283 | -73.21980 | 36086 ft | 443 kts | 300° |
| 2026-05-07 17:49 | 22.65069 | -73.27928 | 36086 ft | 442 kts | 300° |
| 2026-05-07 17:49 | 22.67857 | -73.33864 | 36086 ft | 442 kts | 300° |
| 2026-05-07 17:50 | 22.70636 | -73.39811 | 36087 ft | 443 kts | 300° |
| 2026-05-07 17:50 | 22.73409 | -73.45763 | 36087 ft | 443 kts | 300° |
| 2026-05-07 17:51 | 22.76176 | -73.51711 | 36088 ft | 442 kts | 300° |
| 2026-05-07 17:51 | 22.78941 | -73.57665 | 36088 ft | 442 kts | 300° |
| 2026-05-07 17:52 | 22.81684 | -73.63576 | 36088 ft | 442 kts | 300° |
| 2026-05-07 17:52 | 22.84440 | -73.69526 | 36089 ft | 442 kts | 300° |
| 2026-05-07 17:53 | 22.87196 | -73.75480 | 36089 ft | 442 kts | 300° |
| 2026-05-07 17:53 | 22.89950 | -73.81439 | 36088 ft | 441 kts | 300° |
| 2026-05-07 17:54 | 22.92697 | -73.87391 | 36089 ft | 441 kts | 300° |
| 2026-05-07 17:54 | 22.95444 | -73.93349 | 36089 ft | 441 kts | 300° |
| 2026-05-07 17:55 | 22.98186 | -73.99303 | 36089 ft | 441 kts | 300° |
| 2026-05-07 17:55 | 23.00928 | -74.05265 | 36090 ft | 442 kts | 299° |
| 2026-05-07 17:56 | 23.03669 | -74.11232 | 36090 ft | 442 kts | 299° |
| 2026-05-07 17:56 | 23.06405 | -74.17196 | 36091 ft | 441 kts | 299° |
| 2026-05-07 17:57 | 23.08678 | -74.22155 | 36091 ft | 441 kts | 299° |
| 2026-05-07 17:57 | 23.11869 | -74.29127 | 36091 ft | 441 kts | 299° |
| 2026-05-07 17:58 | 23.14600 | -74.35102 | 36092 ft | 441 kts | 299° |
| 2026-05-07 17:58 | 23.17325 | -74.41071 | 36092 ft | 441 kts | 299° |
| 2026-05-07 17:59 | 23.20030 | -74.47003 | 36093 ft | 441 kts | 299° |
| 2026-05-07 17:59 | 23.22750 | -74.52974 | 36093 ft | 441 kts | 299° |
| 2026-05-07 18:00 | 23.25473 | -74.58950 | 36093 ft | 441 kts | 299° |
| 2026-05-07 18:00 | 23.28199 | -74.64917 | 36094 ft | 441 kts | 298° |
| 2026-05-07 18:01 | 23.30909 | -74.70899 | 36095 ft | 442 kts | 298° |
| 2026-05-07 18:01 | 23.33620 | -74.76896 | 36095 ft | 441 kts | 298° |
| 2026-05-07 18:02 | 23.37678 | -74.85882 | 36096 ft | 441 kts | 298° |
| 2026-05-07 18:03 | 23.40171 | -74.91991 | 36096 ft | 443 kts | 293° |
| 2026-05-07 18:03 | 23.42139 | -74.98354 | 36097 ft | 444 kts | 290° |
| 2026-05-07 18:04 | 23.44031 | -75.04765 | 36097 ft | 444 kts | 290° |
| 2026-05-07 18:04 | 23.45945 | -75.11160 | 36098 ft | 444 kts | 290° |
| 2026-05-07 18:05 | 23.47867 | -75.17551 | 36098 ft | 444 kts | 290° |
| 2026-05-07 18:05 | 23.49789 | -75.23935 | 36099 ft | 444 kts | 290° |
| 2026-05-07 18:06 | 23.51742 | -75.30319 | 36099 ft | 444 kts | 291° |
| 2026-05-07 18:06 | 23.53674 | -75.36664 | 36100 ft | 444 kts | 290° |
| 2026-05-07 18:07 | 23.55609 | -75.43052 | 36100 ft | 444 kts | 290° |
| 2026-05-07 18:07 | 23.57537 | -75.49438 | 36100 ft | 444 kts | 290° |
| 2026-05-07 18:08 | 23.59462 | -75.55828 | 36099 ft | 444 kts | 290° |
| 2026-05-07 18:08 | 23.61386 | -75.62228 | 36100 ft | 444 kts | 290° |
| 2026-05-07 18:09 | 23.63305 | -75.68622 | 36096 ft | 444 kts | 290° |
| 2026-05-07 18:09 | 23.65225 | -75.75032 | 36086 ft | 446 kts | 290° |
| 2026-05-07 18:10 | 23.67151 | -75.81473 | 36079 ft | 446 kts | 290° |
| 2026-05-07 18:10 | 23.69073 | -75.87909 | 36077 ft | 446 kts | 290° |
| 2026-05-07 18:11 | 23.70991 | -75.94345 | 36077 ft | 446 kts | 290° |
| 2026-05-07 18:11 | 23.72908 | -76.00788 | 36078 ft | 446 kts | 290° |
| 2026-05-07 18:12 | 23.74820 | -76.07226 | 36079 ft | 446 kts | 290° |
| 2026-05-07 18:12 | 23.76730 | -76.13665 | 36079 ft | 446 kts | 290° |
| 2026-05-07 18:13 | 23.78636 | -76.20103 | 36080 ft | 446 kts | 290° |
| 2026-05-07 18:13 | 23.80540 | -76.26547 | 36081 ft | 446 kts | 290° |
| 2026-05-07 18:14 | 23.82440 | -76.32989 | 36081 ft | 446 kts | 290° |
| 2026-05-07 18:14 | 23.84340 | -76.39437 | 36080 ft | 446 kts | 290° |
| 2026-05-07 18:15 | 23.86224 | -76.45845 | 36081 ft | 446 kts | 290° |
| 2026-05-07 18:15 | 23.88117 | -76.52293 | 36082 ft | 446 kts | 289° |
| 2026-05-07 18:16 | 23.90007 | -76.58745 | 36083 ft | 446 kts | 289° |
| 2026-05-07 18:16 | 23.91898 | -76.65210 | 36084 ft | 447 kts | 289° |
| 2026-05-07 18:17 | 23.93787 | -76.71677 | 36085 ft | 447 kts | 289° |
| 2026-05-07 18:17 | 23.95673 | -76.78146 | 36085 ft | 446 kts | 289° |
| 2026-05-07 18:18 | 23.97554 | -76.84610 | 36086 ft | 446 kts | 289° |
| 2026-05-07 18:18 | 23.99433 | -76.91077 | 36087 ft | 445 kts | 289° |
| 2026-05-07 18:19 | 24.01302 | -76.97522 | 36088 ft | 443 kts | 289° |
| 2026-05-07 18:19 | 24.03161 | -77.03944 | 36089 ft | 443 kts | 289° |
| 2026-05-07 18:20 | 24.05016 | -77.10364 | 36089 ft | 443 kts | 289° |
| 2026-05-07 18:20 | 24.06871 | -77.16793 | 36090 ft | 443 kts | 289° |
| 2026-05-07 18:21 | 24.08722 | -77.23221 | 36090 ft | 443 kts | 289° |
| 2026-05-07 18:21 | 24.10570 | -77.29647 | 36091 ft | 443 kts | 289° |
| 2026-05-07 18:22 | 24.12413 | -77.36068 | 36091 ft | 443 kts | 289° |
| 2026-05-07 18:22 | 24.14257 | -77.42507 | 36091 ft | 443 kts | 289° |
| 2026-05-07 18:23 | 24.16084 | -77.48894 | 36092 ft | 443 kts | 289° |
| 2026-05-07 18:23 | 24.17627 | -77.54279 | 36092 ft | 442 kts | 289° |
| 2026-05-07 18:24 | 24.19773 | -77.61753 | 36093 ft | 443 kts | 289° |
| 2026-05-07 18:24 | 24.21304 | -77.67146 | 36093 ft | 443 kts | 288° |
| 2026-05-07 18:25 | 24.23131 | -77.73603 | 36093 ft | 444 kts | 288° |
| 2026-05-07 18:25 | 24.24955 | -77.80059 | 36092 ft | 443 kts | 288° |
| 2026-05-07 18:26 | 24.27027 | -77.86406 | 36092 ft | 442 kts | 296° |
| 2026-05-07 18:26 | 24.30053 | -77.92262 | 36092 ft | 441 kts | 303° |
| 2026-05-07 18:27 | 24.33449 | -77.97815 | 36091 ft | 441 kts | 304° |
| 2026-05-07 18:27 | 24.36878 | -78.03401 | 36091 ft | 441 kts | 304° |
| 2026-05-07 18:28 | 24.40299 | -78.08990 | 36091 ft | 441 kts | 304° |
| 2026-05-07 18:28 | 24.43710 | -78.14570 | 36091 ft | 440 kts | 304° |
| 2026-05-07 18:29 | 24.47128 | -78.20148 | 36091 ft | 440 kts | 304° |
| 2026-05-07 18:29 | 24.50552 | -78.25721 | 36091 ft | 440 kts | 304° |
| 2026-05-07 18:30 | 24.53968 | -78.31307 | 36090 ft | 440 kts | 304° |
| 2026-05-07 18:30 | 24.57376 | -78.36895 | 36090 ft | 440 kts | 304° |
| 2026-05-07 18:31 | 24.60775 | -78.42476 | 36089 ft | 439 kts | 304° |
| 2026-05-07 18:31 | 24.64185 | -78.48049 | 36089 ft | 439 kts | 304° |
| 2026-05-07 18:32 | 24.67578 | -78.53635 | 36089 ft | 439 kts | 304° |
| 2026-05-07 18:32 | 24.70965 | -78.59230 | 36088 ft | 439 kts | 304° |
| 2026-05-07 18:33 | 24.74351 | -78.64828 | 36087 ft | 439 kts | 303° |
| 2026-05-07 18:33 | 24.77714 | -78.70388 | 36082 ft | 440 kts | 303° |
| 2026-05-07 18:33 | 24.79413 | -78.73202 | 35648 ft | 444 kts | 303° |
| 2026-05-07 18:34 | 24.81125 | -78.76031 | 34879 ft | 444 kts | 303° |
| 2026-05-07 18:34 | 24.82836 | -78.78860 | 34130 ft | 444 kts | 303° |
| 2026-05-07 18:34 | 24.84548 | -78.81695 | 33371 ft | 445 kts | 303° |
| 2026-05-07 18:34 | 24.86275 | -78.84525 | 32599 ft | 446 kts | 303° |
| 2026-05-07 18:35 | 24.87999 | -78.87367 | 31890 ft | 445 kts | 303° |
| 2026-05-07 18:35 | 24.89702 | -78.90188 | 31313 ft | 441 kts | 303° |
| 2026-05-07 18:35 | 24.91390 | -78.92990 | 30746 ft | 437 kts | 303° |
| 2026-05-07 18:35 | 24.93061 | -78.95769 | 30185 ft | 433 kts | 303° |
| 2026-05-07 18:36 | 24.94715 | -78.98521 | 29636 ft | 429 kts | 303° |
| 2026-05-07 18:36 | 24.96356 | -79.01252 | 29101 ft | 426 kts | 303° |
| 2026-05-07 18:36 | 24.97983 | -79.03963 | 28566 ft | 422 kts | 303° |
| 2026-05-07 18:36 | 24.99596 | -79.06650 | 28035 ft | 419 kts | 303° |
| 2026-05-07 18:37 | 25.01201 | -79.09320 | 27502 ft | 416 kts | 303° |
| 2026-05-07 18:37 | 25.02790 | -79.11971 | 26971 ft | 413 kts | 303° |
| 2026-05-07 18:37 | 25.04377 | -79.14593 | 26444 ft | 410 kts | 303° |
| 2026-05-07 18:37 | 25.05950 | -79.17203 | 25919 ft | 407 kts | 303° |
| 2026-05-07 18:38 | 25.07507 | -79.19797 | 25396 ft | 404 kts | 303° |
| 2026-05-07 18:38 | 25.09051 | -79.22375 | 24876 ft | 401 kts | 303° |
| 2026-05-07 18:38 | 25.10582 | -79.24937 | 24357 ft | 399 kts | 303° |
| 2026-05-07 18:38 | 25.12104 | -79.27483 | 23840 ft | 396 kts | 303° |
| 2026-05-07 18:39 | 25.13613 | -79.30012 | 23327 ft | 393 kts | 303° |
| 2026-05-07 18:39 | 25.15114 | -79.32526 | 22815 ft | 391 kts | 303° |
| 2026-05-07 18:39 | 25.16604 | -79.35025 | 22307 ft | 388 kts | 303° |
| 2026-05-07 18:39 | 25.18085 | -79.37505 | 21832 ft | 385 kts | 303° |
| 2026-05-07 18:40 | 25.19537 | -79.39938 | 21714 ft | 372 kts | 303° |
| 2026-05-07 18:40 | 25.20941 | -79.42296 | 21457 ft | 365 kts | 304° |
| 2026-05-07 18:40 | 25.22344 | -79.44623 | 20992 ft | 363 kts | 304° |
| 2026-05-07 18:40 | 25.23736 | -79.46944 | 20533 ft | 362 kts | 304° |
| 2026-05-07 18:41 | 25.25117 | -79.49259 | 20077 ft | 360 kts | 304° |
| 2026-05-07 18:41 | 25.26490 | -79.51564 | 19627 ft | 358 kts | 304° |
| 2026-05-07 18:41 | 25.27855 | -79.53860 | 19181 ft | 357 kts | 304° |
| 2026-05-07 18:41 | 25.29213 | -79.56148 | 18736 ft | 355 kts | 304° |
| 2026-05-07 18:42 | 25.30566 | -79.58428 | 18295 ft | 354 kts | 304° |
| 2026-05-07 18:42 | 25.31910 | -79.60694 | 17857 ft | 352 kts | 304° |
| 2026-05-07 18:42 | 25.33248 | -79.62951 | 17399 ft | 351 kts | 304° |
| 2026-05-07 18:42 | 25.34582 | -79.65202 | 16947 ft | 350 kts | 304° |
| 2026-05-07 18:43 | 25.35915 | -79.67450 | 16505 ft | 349 kts | 304° |
| 2026-05-07 18:43 | 25.37244 | -79.69691 | 16068 ft | 347 kts | 304° |
| 2026-05-07 18:43 | 25.38563 | -79.71918 | 15637 ft | 346 kts | 303° |
| 2026-05-07 18:43 | 25.39895 | -79.74130 | 15208 ft | 345 kts | 305° |
| 2026-05-07 18:44 | 25.41297 | -79.76279 | 14781 ft | 343 kts | 306° |
| 2026-05-07 18:44 | 25.42699 | -79.78413 | 14356 ft | 342 kts | 306° |
| 2026-05-07 18:44 | 25.44081 | -79.80551 | 13934 ft | 341 kts | 305° |
| 2026-05-07 18:44 | 25.45452 | -79.82685 | 13512 ft | 340 kts | 305° |
| 2026-05-07 18:45 | 25.46820 | -79.84816 | 13090 ft | 339 kts | 305° |
| 2026-05-07 18:45 | 25.48183 | -79.86946 | 12666 ft | 338 kts | 305° |
| 2026-05-07 18:45 | 25.49546 | -79.89064 | 12243 ft | 337 kts | 305° |
| 2026-05-07 18:45 | 25.50903 | -79.91179 | 11823 ft | 336 kts | 305° |
| 2026-05-07 18:46 | 25.52236 | -79.93262 | 11409 ft | 336 kts | 304° |
| 2026-05-07 18:46 | 25.53580 | -79.95366 | 10991 ft | 335 kts | 305° |
| 2026-05-07 18:46 | 25.54918 | -79.97461 | 10728 ft | 329 kts | 305° |
| 2026-05-07 18:46 | 25.56214 | -79.99489 | 10650 ft | 317 kts | 305° |
| 2026-05-07 18:47 | 25.57466 | -80.01449 | 10572 ft | 306 kts | 305° |
| 2026-05-07 18:47 | 25.58674 | -80.03346 | 10452 ft | 297 kts | 304° |
| 2026-05-07 18:47 | 25.59867 | -80.05208 | 10147 ft | 296 kts | 305° |
| 2026-05-07 18:47 | 25.61037 | -80.07040 | 10039 ft | 286 kts | 305° |
| 2026-05-07 18:48 | 25.62172 | -80.08819 | 9869 ft | 280 kts | 304° |
| 2026-05-07 18:48 | 25.63293 | -80.10577 | 9571 ft | 279 kts | 304° |
| 2026-05-07 18:48 | 25.64410 | -80.12330 | 9269 ft | 278 kts | 304° |
| 2026-05-07 18:48 | 25.65473 | -80.14108 | 9052 ft | 276 kts | 300° |
| 2026-05-07 18:49 | 25.66365 | -80.16020 | 8748 ft | 283 kts | 295° |
| 2026-05-07 18:49 | 25.67192 | -80.17999 | 8475 ft | 284 kts | 294° |
| 2026-05-07 18:49 | 25.68014 | -80.19977 | 8207 ft | 281 kts | 294° |
| 2026-05-07 18:49 | 25.68823 | -80.21930 | 8004 ft | 277 kts | 294° |
| 2026-05-07 18:50 | 25.69644 | -80.23864 | 7683 ft | 277 kts | 295° |
| 2026-05-07 18:50 | 25.70461 | -80.25785 | 7391 ft | 275 kts | 294° |
| 2026-05-07 18:50 | 25.71035 | -80.27793 | 7105 ft | 272 kts | 280° |
| 2026-05-07 18:50 | 25.71212 | -80.29867 | 6824 ft | 270 kts | 271° |
| 2026-05-07 18:51 | 25.71152 | -80.31933 | 6548 ft | 267 kts | 266° |
| 2026-05-07 18:51 | 25.71006 | -80.33975 | 6276 ft | 265 kts | 265° |
| 2026-05-07 18:51 | 25.70880 | -80.36005 | 6007 ft | 263 kts | 266° |
| 2026-05-07 18:51 | 25.70774 | -80.38019 | 5740 ft | 261 kts | 266° |
| 2026-05-07 18:52 | 25.70675 | -80.40026 | 5473 ft | 258 kts | 266° |
| 2026-05-07 18:52 | 25.70579 | -80.41974 | 5106 ft | 248 kts | 266° |
| 2026-05-07 18:52 | 25.70487 | -80.43826 | 4900 ft | 233 kts | 266° |
| 2026-05-07 18:52 | 25.70371 | -80.45585 | 4540 ft | 226 kts | 264° |
| 2026-05-07 18:53 | 25.70282 | -80.47316 | 4079 ft | 225 kts | 271° |
| 2026-05-07 18:53 | 25.70791 | -80.48922 | 3688 ft | 221 kts | 304° |
| 2026-05-07 18:53 | 25.71974 | -80.49889 | 3487 ft | 209 kts | 337° |
| 2026-05-07 18:53 | 25.73390 | -80.50222 | 3234 ft | 207 kts | 351° |
| 2026-05-07 18:54 | 25.74815 | -80.50415 | 3036 ft | 206 kts | 353° |
| 2026-05-07 18:54 | 25.76212 | -80.50397 | 2952 ft | 197 kts | 14° |
| 2026-05-07 18:54 | 25.77395 | -80.49717 | 2977 ft | 189 kts | 37° |
| 2026-05-07 18:54 | 25.78274 | -80.48661 | 2980 ft | 185 kts | 56° |
| 2026-05-07 18:55 | 25.78844 | -80.47383 | 2951 ft | 184 kts | 71° |
| 2026-05-07 18:55 | 25.79144 | -80.46042 | 2805 ft | 175 kts | 81° |
| 2026-05-07 18:55 | 25.79327 | -80.44720 | 2565 ft | 171 kts | 82° |
| 2026-05-07 18:55 | 25.79472 | -80.43424 | 2324 ft | 168 kts | 85° |
| 2026-05-07 18:56 | 25.79559 | -80.42146 | 2099 ft | 165 kts | 87° |
| 2026-05-07 18:56 | 25.79622 | -80.40884 | 1882 ft | 163 kts | 88° |
| 2026-05-07 18:56 | 25.79678 | -80.39626 | 1669 ft | 164 kts | 88° |
| 2026-05-07 18:56 | 25.79731 | -80.38373 | 1455 ft | 165 kts | 87° |
| 2026-05-07 18:57 | 25.79785 | -80.37084 | 1235 ft | 165 kts | 88° |
| 2026-05-07 18:57 | 25.79836 | -80.35832 | 1020 ft | 166 kts | 87° |
| 2026-05-07 18:57 | 25.79889 | -80.34555 | 803 ft | 164 kts | 86° |
| 2026-05-07 18:57 | 25.79941 | -80.33294 | 572 ft | 162 kts | 86° |
| 2026-05-07 18:58 | 25.79992 | -80.32055 | 366 ft | 160 kts | 86° |
| 2026-05-07 18:58 | 25.80041 | -80.30834 | 170 ft | 156 kts | 87° |
| 2026-05-07 18:58 | 25.80088 | -80.29645 | 24 ft | 150 kts | 87° |
| 2026-05-07 18:58 | 25.80135 | -80.28654 | 16 ft | 93 kts | 88° |
| 2026-05-07 18:59 | 25.80155 | -80.28192 | 16 ft | 33 kts | 89° |
| 2026-05-07 18:59 | 25.80123 | -80.27985 | 16 ft | 21 kts | 113° |
| 2026-05-07 18:59 | 25.80072 | -80.27927 | 16 ft | 7 kts | 153° |
| 2026-05-07 18:59 | 25.80038 | -80.27908 | 16 ft | 5 kts | 153° |
| 2026-05-07 19:00 | 25.80010 | -80.27892 | 16 ft | 4 kts | 153° |
| 2026-05-07 19:00 | 25.79984 | -80.27872 | 16 ft | 5 kts | 128° |
| 2026-05-07 19:00 | 25.79976 | -80.27828 | 16 ft | 10 kts | 88° |
| 2026-05-07 19:00 | 25.79973 | -80.27702 | 16 ft | 21 kts | 98° |
| 2026-05-07 19:01 | 25.79897 | -80.27600 | 16 ft | 15 kts | 166° |
| 2026-05-07 19:01 | 25.79814 | -80.27594 | 16 ft | 5 kts | 177° |
| 2026-05-07 19:01 | 25.79790 | -80.27593 | 16 ft | 0 kts | 178° |